KAXS/AXS METAR and TAF weather

Enter ICAO airport designator
Station Type Date Time Source
KAXS METAR 2022/01/29 12:35 UTC NOAA

KAXS 291235Z AUTO 25004KT 10SM CLR M04/M07 A3031 RMK AO2 T10411069


Station Type Date Time Source
KAXS Decoded METAR 2022/01/29 12:35 UTC NOAA

Altus, Altus/Quartz Mountain Regional Airport, OK, United States (KAXS) 34-41-55N 099-20-17W
Jan 29, 2022 - 07:35 AM EST / 2022.01.29 1235 UTC
Wind: from the WSW (250 degrees) at 5 MPH (4 KT):0
Visibility: 10 mile(s):0
Sky conditions: clear
Temperature: 24.6 F (-4.1 C)
Windchill: 17 F (-8 C):1
Dew Point: 19.6 F (-6.9 C)
Relative Humidity: 80%
Pressure (altimeter): 30.31 in. Hg (1026 hPa)
ob: KAXS 291235Z AUTO 25004KT 10SM CLR M04/M07 A3031 RMK AO2 T10411069
cycle: 12

Station Type Date Time Source
KAXS TAF UTC NOAA

Error!

Example: see airport list